Time;durP1;ratioP1;P1;durP2;ratioP2;P2;SDS_P1;SDS_P2;PMS_P1;PMS_P2;Temp;Humidity;BMP_temperature;BMP_pressure;BME280_temperature;BME280_humidity;BME280_pressure;Samples;Min_cycle;Max_cycle;Signal;HPM_P1;HPM_P2
2022/02/10 00:35:33;;;;;;;0.32;0.20;;;;;;;;;;5023439;28;20716;-71
2022/02/10 00:37:59;;;;;;;0.40;0.38;;;;;;;;;;5023538;28;20073;-70
2022/02/10 00:40:25;;;;;;;0.43;0.40;;;;;;;;;;5022817;28;20552;-70
2022/02/10 00:42:53;;;;;;;0.40;0.40;;;;;;;;;;5020391;28;20460;-71
2022/02/10 00:45:19;;;;;;;0.52;0.40;;;;;;;;;;5023855;28;20029;-70
2022/02/10 00:47:51;;;;;;;0.50;0.30;;;;;;;;;;5005786;28;20022;-70
2022/02/10 00:50:17;;;;;;;1.15;0.30;;;;;;;;;;5022277;28;20021;-70
2022/02/10 00:52:45;;;;;;;0.65;0.30;;;;;;;;;;5023368;28;20413;-70
2022/02/10 00:55:14;;;;;;;0.57;0.28;;;;;;;;;;5006059;28;20156;-71
2022/02/10 00:57:40;;;;;;;0.82;0.15;;;;;;;;;;5023557;28;20029;-70
2022/02/10 01:30:14;;;;;;;0.70;0.38;;;;;;;;;;5030969;28;20048;-70
2022/02/10 01:32:44;;;;;;;0.35;0.30;;;;;;;;;;5021854;28;20021;-71
2022/02/10 01:35:13;;;;;;;0.32;0.30;;;;;;;;;;5022791;28;20049;-71
2022/02/10 01:37:40;;;;;;;0.60;0.30;;;;;;;;;;5022645;28;20033;-71
2022/02/10 01:40:12;;;;;;;0.38;0.20;;;;;;;;;;5022412;28;20108;-70
2022/02/10 02:04:12;;;;;;;0.85;0.30;;;;;;;;;;5024772;28;20523;-70
2022/02/10 02:06:46;;;;;;;0.57;0.30;;;;;;;;;;5024268;28;20018;-70
2022/02/10 02:09:15;;;;;;;0.22;0.20;;;;;;;;;;5006469;28;20022;-70
2022/02/10 02:11:42;;;;;;;0.32;0.20;;;;;;;;;;5005260;28;20075;-70
2022/02/10 02:14:08;;;;;;;0.20;0.20;;;;;;;;;;5024442;28;20123;-70
2022/02/10 02:16:35;;;;;;;0.20;0.17;;;;;;;;;;5024126;28;20050;-70
2022/02/10 02:19:02;;;;;;;1.17;0.20;;;;;;;;;;5024353;28;20453;-70
2022/02/10 02:21:28;;;;;;;0.10;0.10;;;;;;;;;;5023984;28;20029;-70
2022/02/10 02:23:54;;;;;;;0.30;0.30;;;;;;;;;;5024460;28;20034;-70
2022/02/10 02:26:25;;;;;;;0.55;0.40;;;;;;;;;;5022914;28;20732;-70
2022/02/10 02:28:56;;;;;;;0.30;0.13;;;;;;;;;;5007466;28;20549;-71
2022/02/10 02:31:27;;;;;;;0.85;0.10;;;;;;;;;;5023950;28;20021;-72
2022/02/10 03:06:45;;;;;;;0.00;0.00;;;;;;;;;;4982196;28;20029;-71
2022/02/10 03:09:19;;;;;;;0.30;0.10;;;;;;;;;;5005731;28;20398;-71
2022/02/10 03:11:46;;;;;;;0.30;0.20;;;;;;;;;;5004237;28;20125;-71
2022/02/10 03:14:20;;;;;;;0.30;0.20;;;;;;;;;;5005621;28;20529;-71
2022/02/10 03:17:13;;;;;;;0.70;0.30;;;;;;;;;;5005145;28;20073;-71
2022/02/10 04:01:03;;;;;;;2.05;1.05;;;;;;;;;;5025249;28;20524;-71
2022/02/10 04:11:14;;;;;;;1.77;1.10;;;;;;;;;;5022100;28;20037;-70
2022/02/10 04:16:32;;;;;;;2.10;1.40;;;;;;;;;;5023054;28;20033;-71
2022/02/10 04:26:45;;;;;;;3.10;1.33;;;;;;;;;;5023746;28;20029;-72
2022/02/10 04:37:48;;;;;;;2.33;1.13;;;;;;;;;;5023435;28;20033;-71
2022/02/10 05:35:46;;;;;;;1.23;0.80;;;;;;;;;;5019851;28;20750;-71
2022/02/10 06:47:06;;;;;;;3.55;1.50;;;;;;;;;;4979502;28;20042;-71
2022/02/10 06:53:42;;;;;;;1.58;1.13;;;;;;;;;;5022547;28;19921;-71
2022/02/10 07:57:09;;;;;;;27.95;15.50;;;;;;;;;;5024812;28;20036;-71
2022/02/10 08:00:11;;;;;;;25.52;14.30;;;;;;;;;;5024193;28;20436;-71
2022/02/10 08:57:09;;;;;;;6.65;3.53;;;;;;;;;;5018685;28;20036;-72
2022/02/10 09:04:52;;;;;;;5.47;3.67;;;;;;;;;;5020871;28;20451;-71
2022/02/10 10:01:22;;;;;;;6.78;3.90;;;;;;;;;;5022176;28;20061;-72
2022/02/10 10:03:58;;;;;;;5.47;3.30;;;;;;;;;;5021764;28;20043;-72
2022/02/10 10:06:47;;;;;;;4.88;3.08;;;;;;;;;;5002460;28;20469;-71
2022/02/10 10:09:44;;;;;;;3.88;3.17;;;;;;;;;;5021516;28;20096;-72
2022/02/10 10:15:23;;;;;;;5.88;3.47;;;;;;;;;;5018625;28;20103;-71
2022/02/10 10:23:51;;;;;;;4.47;2.92;;;;;;;;;;5023099;28;20512;-72
2022/02/10 10:56:46;;;;;;;3.53;2.10;;;;;;;;;;5019532;28;20556;-71
2022/02/10 10:59:31;;;;;;;4.63;2.83;;;;;;;;;;5023200;28;20383;-71
2022/02/10 11:38:21;;;;;;;14.57;9.05;;;;;;;;;;5024586;28;20476;-71
2022/02/10 11:43:35;;;;;;;6.47;3.83;;;;;;;;;;5022425;28;20029;-71
2022/02/10 13:03:17;;;;;;;12.27;7.40;;;;;;;;;;5020576;28;20076;-68
2022/02/10 14:17:10;;;;;;;7.07;2.38;;;;;;;;;;5019664;28;20048;-70
2022/02/10 14:19:46;;;;;;;4.63;2.30;;;;;;;;;;5021417;28;20471;-70
2022/02/10 14:27:26;;;;;;;17.40;8.60;;;;;;;;;;5021565;28;20666;-70
2022/02/10 14:29:53;;;;;;;11.25;6.15;;;;;;;;;;5021393;28;20033;-70
2022/02/10 14:32:23;;;;;;;7.28;3.78;;;;;;;;;;5021480;28;20040;-70
2022/02/10 14:34:53;;;;;;;6.22;3.63;;;;;;;;;;5019590;28;20046;-70
2022/02/10 15:30:03;;;;;;;5.43;2.22;;;;;;;;;;5004433;28;20115;-71
2022/02/10 16:17:25;;;;;;;12.38;6.55;;;;;;;;;;5003435;28;20418;-70
2022/02/10 16:19:53;;;;;;;14.48;7.05;;;;;;;;;;5003814;28;20152;-69
2022/02/10 16:25:00;;;;;;;12.52;7.78;;;;;;;;;;5001872;28;20022;-69
2022/02/10 16:27:31;;;;;;;12.55;7.45;;;;;;;;;;5003053;28;20055;-70
2022/02/10 16:30:04;;;;;;;16.67;8.43;;;;;;;;;;5003488;28;20018;-69
2022/02/10 16:32:31;;;;;;;10.98;6.75;;;;;;;;;;5003485;28;20468;-69
2022/02/10 16:35:01;;;;;;;15.13;7.32;;;;;;;;;;5002632;28;20137;-69
2022/02/10 16:37:27;;;;;;;15.25;7.43;;;;;;;;;;5001402;28;20018;-69
2022/02/10 16:39:53;;;;;;;13.30;6.63;;;;;;;;;;5003118;28;20651;-69
2022/02/10 16:42:21;;;;;;;16.15;8.77;;;;;;;;;;5003416;28;20944;-70
2022/02/10 16:44:47;;;;;;;16.30;8.60;;;;;;;;;;5003092;28;20030;-69
2022/02/10 16:47:14;;;;;;;11.18;6.72;;;;;;;;;;5001356;28;20030;-69
2022/02/10 16:49:46;;;;;;;11.10;6.28;;;;;;;;;;5003112;28;20037;-69
2022/02/10 16:52:19;;;;;;;15.40;6.63;;;;;;;;;;5003313;28;20076;-70
2022/02/10 16:54:47;;;;;;;11.77;6.88;;;;;;;;;;5002990;28;20041;-70
2022/02/10 16:57:25;;;;;;;13.43;7.07;;;;;;;;;;5001009;28;20038;-69
2022/02/10 17:00:09;;;;;;;11.73;6.88;;;;;;;;;;5003086;28;20084;-69
2022/02/10 17:03:22;;;;;;;16.88;7.10;;;;;;;;;;5003271;28;20044;-69
2022/02/10 17:27:45;;;;;;;10.63;6.53;;;;;;;;;;5002636;28;20080;-69
2022/02/10 17:33:12;;;;;;;9.57;5.15;;;;;;;;;;5002281;28;20433;-69
2022/02/10 17:41:33;;;;;;;8.52;5.18;;;;;;;;;;5002194;28;20116;-70
2022/02/10 17:52:03;;;;;;;12.70;7.10;;;;;;;;;;5002185;28;20153;-69
2022/02/10 17:54:29;;;;;;;12.23;6.55;;;;;;;;;;5000525;28;20116;-69
2022/02/10 17:56:55;;;;;;;12.52;6.78;;;;;;;;;;5002006;28;20053;-69
2022/02/10 17:59:22;;;;;;;13.07;6.72;;;;;;;;;;5002121;28;20055;-69
2022/02/10 18:01:49;;;;;;;8.57;5.72;;;;;;;;;;5002000;28;20084;-69
2022/02/10 18:04:15;;;;;;;11.68;5.70;;;;;;;;;;5001854;28;20030;-69
2022/02/10 18:06:45;;;;;;;14.35;7.70;;;;;;;;;;5002043;28;20026;-72
2022/02/10 18:17:22;;;;;;;8.93;6.38;;;;;;;;;;5000073;28;20117;-70
2022/02/10 18:19:54;;;;;;;9.68;5.10;;;;;;;;;;5001451;28;20036;-70
2022/02/10 18:25:53;;;;;;;5.65;3.80;;;;;;;;;;5001827;28;20095;-70
2022/02/10 18:28:15;;;;;;;6.70;5.00;;;;;;;;;;4991579;28;20026;-70
2022/02/10 19:08:11;;;;;;;11.07;6.70;;;;;;;;;;5005147;28;20022;-70
2022/02/10 19:10:44;;;;;;;12.65;6.22;;;;;;;;;;5004615;28;20462;-70
2022/02/10 19:13:11;;;;;;;10.52;6.70;;;;;;;;;;5005507;28;20418;-69
2022/02/10 19:15:37;;;;;;;16.80;8.32;;;;;;;;;;5003287;28;20038;-69
2022/02/10 19:18:04;;;;;;;23.17;8.88;;;;;;;;;;5004833;28;20030;-70
2022/02/10 19:20:32;;;;;;;10.98;7.82;;;;;;;;;;5003282;28;20109;-70
2022/02/10 19:23:00;;;;;;;12.00;7.13;;;;;;;;;;5004371;28;20029;-70
2022/02/10 19:25:26;;;;;;;13.68;9.70;;;;;;;;;;5004415;28;20101;-70
2022/02/10 19:27:52;;;;;;;16.73;9.20;;;;;;;;;;5021954;28;20025;-69
2022/02/10 19:30:20;;;;;;;22.52;9.98;;;;;;;;;;5022457;28;20505;-69
2022/02/10 19:32:52;;;;;;;14.45;9.43;;;;;;;;;;5023322;28;20051;-70
2022/02/10 19:35:21;;;;;;;;;;;;;;;;;;5003437;28;20046;-69
2022/02/10 19:37:53;;;;;;;16.85;11.98;;;;;;;;;;5003999;28;19963;-70
2022/02/10 19:40:19;;;;;;;15.30;10.32;;;;;;;;;;5002593;28;20037;-70
2022/02/10 19:42:47;;;;;;;25.15;13.15;;;;;;;;;;5003969;28;20026;-71
2022/02/10 19:45:13;;;;;;;27.08;12.85;;;;;;;;;;5001857;28;20359;-71
2022/02/10 19:47:40;;;;;;;16.92;11.10;;;;;;;;;;4993153;28;20525;-71
2022/02/10 19:50:15;;;;;;;24.50;15.75;;;;;;;;;;5003440;28;20049;-70
2022/02/10 19:52:44;;;;;;;21.30;14.00;;;;;;;;;;4983163;28;20026;-70
2022/02/10 19:55:15;;;;;;;16.42;12.15;;;;;;;;;;4984365;28;20460;-70
2022/02/10 19:57:42;;;;;;;13.00;9.18;;;;;;;;;;4996859;28;20022;-72
2022/02/10 20:00:12;;;;;;;15.05;9.27;;;;;;;;;;4992205;28;20129;-70
2022/02/10 20:02:39;;;;;;;14.18;9.20;;;;;;;;;;5001202;28;20018;-70
2022/02/10 20:05:05;;;;;;;15.75;8.75;;;;;;;;;;5001470;28;20038;-71
2022/02/10 20:07:38;;;;;;;16.33;9.20;;;;;;;;;;4999988;28;20092;-70
2022/02/10 20:10:07;;;;;;;14.52;10.50;;;;;;;;;;4986803;28;20085;-71
2022/02/10 20:12:33;;;;;;;13.70;9.80;;;;;;;;;;4988547;28;20030;-71
2022/02/10 20:15:00;;;;;;;12.55;8.30;;;;;;;;;;4987313;28;20077;-70
2022/02/10 20:17:26;;;;;;;9.98;7.80;;;;;;;;;;4999956;28;20034;-70
2022/02/10 20:19:52;;;;;;;8.73;6.78;;;;;;;;;;4996514;28;20026;-70
2022/02/10 20:22:18;;;;;;;11.00;7.47;;;;;;;;;;4998705;28;20018;-70
2022/02/10 20:24:44;;;;;;;8.50;5.90;;;;;;;;;;5001349;28;20034;-70
2022/02/10 20:27:11;;;;;;;12.70;7.30;;;;;;;;;;5003388;28;20032;-70
2022/02/10 20:29:37;;;;;;;9.43;6.65;;;;;;;;;;5019971;28;20037;-70
2022/02/10 20:32:03;;;;;;;10.07;6.93;;;;;;;;;;5011066;28;20033;-72
2022/02/10 20:34:31;;;;;;;10.48;6.90;;;;;;;;;;5008686;28;20033;-71
2022/02/10 20:36:59;;;;;;;12.45;6.97;;;;;;;;;;5040519;28;20504;-71
2022/02/10 20:39:28;;;;;;;10.98;6.47;;;;;;;;;;5041247;28;20970;-71
2022/02/10 20:42:03;;;;;;;12.10;6.90;;;;;;;;;;5021489;28;20116;-72
2022/02/10 20:44:29;;;;;;;8.02;6.32;;;;;;;;;;5021072;28;20038;-70
2022/02/10 20:46:56;;;;;;;8.85;6.43;;;;;;;;;;5019278;28;20050;-70
2022/02/10 20:49:27;;;;;;;9.25;6.43;;;;;;;;;;5023873;28;20706;-69
2022/02/10 20:51:53;;;;;;;11.00;7.00;;;;;;;;;;5018973;28;20029;-70
2022/02/10 20:54:20;;;;;;;9.88;7.50;;;;;;;;;;5018181;28;20050;-70
2022/02/10 20:56:46;;;;;;;11.75;7.13;;;;;;;;;;5018829;28;20026;-71
2022/02/10 21:01:45;;;;;;;10.35;7.03;;;;;;;;;;5022267;28;20045;-70
2022/02/10 21:04:12;;;;;;;9.80;6.97;;;;;;;;;;5018329;28;20108;-71
2022/02/10 21:09:14;;;;;;;11.52;7.93;;;;;;;;;;5020037;28;20030;-70
2022/02/10 21:11:41;;;;;;;13.25;8.27;;;;;;;;;;5005107;28;20044;-70
2022/02/10 21:14:14;;;;;;;13.32;8.60;;;;;;;;;;5020435;28;20124;-70
2022/02/10 21:16:42;;;;;;;11.60;7.50;;;;;;;;;;5006380;28;20468;-70
2022/02/10 21:19:10;;;;;;;14.98;9.20;;;;;;;;;;5018211;28;20040;-71
2022/02/10 21:21:36;;;;;;;16.25;8.55;;;;;;;;;;5019535;28;20026;-71
2022/02/10 21:24:05;;;;;;;12.05;8.30;;;;;;;;;;5021816;28;20559;-70
2022/02/10 21:26:39;;;;;;;13.32;7.47;;;;;;;;;;5022965;28;20032;-70
2022/02/10 21:29:06;;;;;;;10.02;7.05;;;;;;;;;;5004561;28;20515;-75
2022/02/10 21:31:42;;;;;;;11.55;6.90;;;;;;;;;;5015171;28;20067;-70
2022/02/10 21:34:22;;;;;;;14.90;7.78;;;;;;;;;;5019446;28;20044;-70
2022/02/10 21:37:12;;;;;;;13.30;7.13;;;;;;;;;;5017715;28;20406;-70
2022/02/10 21:40:01;;;;;;;7.57;5.38;;;;;;;;;;5018655;28;20045;-71
2022/02/10 21:43:34;;;;;;;9.95;6.22;;;;;;;;;;5000464;28;20504;-70
2022/02/10 22:02:49;;;;;;;4.72;3.00;;;;;;;;;;5019290;28;20025;-71
2022/02/10 22:08:03;;;;;;;7.00;4.72;;;;;;;;;;5019320;28;20037;-71
2022/02/10 22:10:23;;;;;;;8.13;4.70;;;;;;;;;;5006409;28;20124;-71
2022/02/10 22:18:59;;;;;;;6.53;3.85;;;;;;;;;;5005817;28;20045;-71
2022/02/10 22:21:13;;;;;;;6.03;4.05;;;;;;;;;;5011836;28;20037;-70
2022/02/10 22:23:45;;;;;;;7.72;4.00;;;;;;;;;;5018755;28;20053;-70
2022/02/10 22:26:18;;;;;;;5.53;3.75;;;;;;;;;;5018571;28;20042;-71
2022/02/10 22:29:04;;;;;;;7.57;4.45;;;;;;;;;;5018824;28;20037;-70
2022/02/10 22:36:37;;;;;;;4.00;2.88;;;;;;;;;;5018414;28;20404;-71
2022/02/10 22:39:04;;;;;;;4.28;2.35;;;;;;;;;;5018761;28;20091;-70
2022/02/10 22:41:31;;;;;;;3.88;1.90;;;;;;;;;;5018513;28;20030;-70
2022/02/10 22:43:58;;;;;;;4.82;2.40;;;;;;;;;;5018649;28;20891;-71
2022/02/10 22:46:24;;;;;;;2.80;1.80;;;;;;;;;;5018145;28;20030;-71
2022/02/10 22:48:51;;;;;;;3.55;2.25;;;;;;;;;;5017440;28;20033;-70
2022/02/10 22:51:18;;;;;;;5.20;2.70;;;;;;;;;;5018301;28;20049;-71
2022/02/10 22:53:44;;;;;;;2.17;1.40;;;;;;;;;;5018769;28;20095;-70
2022/02/10 22:56:12;;;;;;;3.20;2.15;;;;;;;;;;5016728;28;20086;-71
2022/02/10 22:58:39;;;;;;;2.00;1.55;;;;;;;;;;5000373;28;20105;-71
2022/02/10 23:01:09;;;;;;;3.67;1.33;;;;;;;;;;5017762;28;20030;-71
2022/02/10 23:03:36;;;;;;;3.00;1.90;;;;;;;;;;5017282;28;20800;-71
2022/02/10 23:06:03;;;;;;;3.58;2.10;;;;;;;;;;5017188;28;20029;-71
2022/02/10 23:08:30;;;;;;;3.05;2.05;;;;;;;;;;5017829;28;20022;-71
2022/02/10 23:10:56;;;;;;;5.07;1.75;;;;;;;;;;5018266;28;20029;-71
2022/02/10 23:13:28;;;;;;;1.80;1.13;;;;;;;;;;5017381;28;20882;-71
2022/02/10 23:16:04;;;;;;;5.25;3.60;;;;;;;;;;5018654;28;20037;-71
2022/02/10 23:18:31;;;;;;;5.68;4.25;;;;;;;;;;5017778;28;20026;-70
2022/02/10 23:20:58;;;;;;;3.28;2.22;;;;;;;;;;5019085;28;20040;-71
2022/02/10 23:23:26;;;;;;;6.45;3.70;;;;;;;;;;5021121;28;20030;-71
2022/02/10 23:25:52;;;;;;;6.72;3.70;;;;;;;;;;5022024;28;20033;-70
2022/02/10 23:28:20;;;;;;;2.83;1.80;;;;;;;;;;5002494;28;20485;-71
2022/02/10 23:30:46;;;;;;;2.22;1.27;;;;;;;;;;5020602;28;20033;-70
2022/02/10 23:33:24;;;;;;;1.70;1.20;;;;;;;;;;5021127;28;20025;-71
2022/02/10 23:38:40;;;;;;;2.45;1.27;;;;;;;;;;5021350;28;20040;-71
2022/02/10 23:43:46;;;;;;;2.80;1.60;;;;;;;;;;5014962;28;20041;-71
2022/02/10 23:46:13;;;;;;;5.43;2.17;;;;;;;;;;5021405;28;20022;-70
2022/02/10 23:48:39;;;;;;;4.00;2.20;;;;;;;;;;5022282;28;20045;-70
2022/02/10 23:51:06;;;;;;;4.88;2.50;;;;;;;;;;5017964;28;20025;-70
2022/02/10 23:53:33;;;;;;;4.95;2.88;;;;;;;;;;5022321;28;20025;-70
2022/02/10 23:56:02;;;;;;;4.57;2.20;;;;;;;;;;5023195;28;20064;-71
